»·PEaware :: UAL1928 KSBA-KPHX

UAL1928 :: KSBA-KPHX

FLIGHT INFORMATION

Flight Status: Arrived
Operator:
United Airlines
More flights by this operator :: More flights under this callsign
Pilot: Chris C. (10181)
Aircraft: BOEING 727-100
(B721)
More flights by this aircraft type
Origin: KSBA Santa Barbara Mun
United States
Destination: KPHX Phoenix Sky Harbor Intl
United States
More flights between these airports :: More routes between these airports
Route: KWANG5 GINNA V326 VNY V186 PDZ J50 BLH ARLIN4
File this flight plan on PilotEdge
Remarks: Happy Sunday!
Altitude:
(Current/Filed)
29,000ft
Speed:
(Current/Filed)
480kts
Departed: 19-Jan-20 04:33 PM
Arrived: 19-Jan-20 05:37 PM
Distance/Time
Traveled:
395nm/1:03
Distance/Time
To Go:
Arrived

Flight Plot

Page will automatically refresh every two minutes.

Flight plan parsing failed; only flown route is shown


Map Options




Map Legend


Flown Route
Filed Route
Departure Airport
Arrival Airport
Navaid (VOR, NDB)
Fix

Horizontal Profiles

Position Reports

Time Latitude Longitude Heading Altitude Ground
Speed
19-Jan-20 16:05 34.424275 -119.837021 105 24ft 0kts
19-Jan-20 16:06 34.424275 -119.837021 105 24ft 0kts
19-Jan-20 16:07 34.424275 -119.837021 105 24ft 0kts
19-Jan-20 16:08 34.424275 -119.837021 105 24ft 0kts
19-Jan-20 16:09 34.424275 -119.837021 105 24ft 0kts
19-Jan-20 16:10 34.424275 -119.837021 105 24ft 0kts
19-Jan-20 16:11 34.424275 -119.837021 105 24ft 0kts
19-Jan-20 16:12 34.424275 -119.837021 105 24ft 0kts
19-Jan-20 16:13 34.424275 -119.837021 105 24ft 0kts
19-Jan-20 16:14 34.424275 -119.837021 105 24ft 0kts
19-Jan-20 16:15 34.424275 -119.837021 105 24ft 0kts
19-Jan-20 16:16 34.424275 -119.837021 105 24ft 0kts
19-Jan-20 16:17 34.424275 -119.837021 105 24ft 0kts
19-Jan-20 16:18 34.424275 -119.837021 105 24ft 0kts
19-Jan-20 16:19 34.424275 -119.837022 105 25ft 0kts
19-Jan-20 16:21 34.424289 -119.837081 100 25ft 2kts
19-Jan-20 16:22 34.423910 -119.837513 347 25ft 2kts
19-Jan-20 16:23 34.423852 -119.837493 340 25ft 0kts
19-Jan-20 16:24 34.423852 -119.837493 340 25ft 0kts
19-Jan-20 16:25 34.423852 -119.837493 340 25ft 0kts
19-Jan-20 16:26 34.423852 -119.837493 340 25ft 0kts
19-Jan-20 16:27 34.426653 -119.837972 66 25ft 9kts
19-Jan-20 16:28 34.426990 -119.834665 10 25ft 0kts
19-Jan-20 16:29 34.426990 -119.834665 10 25ft 0kts
19-Jan-20 16:30 34.426990 -119.834665 10 25ft 0kts
19-Jan-20 16:31 34.426990 -119.834665 10 25ft 0kts
19-Jan-20 16:32 34.427821 -119.834766 304 24ft 13kts
19-Jan-20 16:33 34.427579 -119.850393 268 73ft 146kts
19-Jan-20 16:34 34.416889 -119.895872 191 2118ft 161kts
19-Jan-20 16:35 34.403816 -119.845805 64 3030ft 201kts
19-Jan-20 16:36 34.406043 -119.778349 105 3026ft 199kts
19-Jan-20 16:37 34.387485 -119.697734 107 5201ft 276kts
19-Jan-20 16:38 34.363437 -119.607595 114 8951ft 286kts
19-Jan-20 16:39 34.331225 -119.516107 115 9272ft 278kts
19-Jan-20 16:40 34.305547 -119.424537 111 11519ft 293kts
19-Jan-20 16:40 34.280753 -119.343437 113 13330ft 313kts
19-Jan-20 16:42 34.248754 -119.236420 113 15754ft 324kts
19-Jan-20 16:43 34.221201 -119.126540 94 17151ft 360kts
19-Jan-20 16:43 34.223406 -119.023674 93 18371ft 377kts
19-Jan-20 16:45 34.221976 -118.870365 96 20084ft 391kts
19-Jan-20 16:45 34.217419 -118.758791 99 21223ft 399kts
19-Jan-20 16:46 34.194557 -118.626761 97 22343ft 410kts
19-Jan-20 16:48 34.221164 -118.464206 92 23354ft 425kts
19-Jan-20 16:48 34.189428 -118.355176 117 24186ft 418kts
19-Jan-20 16:49 34.146880 -118.222794 113 25299ft 431kts
19-Jan-20 16:50 34.108657 -118.083491 112 26282ft 443kts
19-Jan-20 16:51 34.069820 -117.940550 112 27160ft 453kts
19-Jan-20 16:52 34.029899 -117.794459 113 28074ft 459kts
19-Jan-20 16:53 33.979260 -117.651332 118 28736ft 466kts
19-Jan-20 16:54 33.928665 -117.504775 103 29120ft 489kts
19-Jan-20 16:55 33.923072 -117.335058 94 29113ft 517kts
19-Jan-20 16:56 33.920583 -117.158845 94 29128ft 534kts
19-Jan-20 16:57 33.912917 -116.976810 99 29125ft 545kts
19-Jan-20 16:58 33.886318 -116.794076 103 29137ft 553kts
19-Jan-20 16:59 33.868322 -116.607790 90 29180ft 560kts
19-Jan-20 17:00 33.873620 -116.420671 89 29172ft 552kts
19-Jan-20 17:01 33.876081 -116.236792 103 29147ft 539kts
19-Jan-20 17:02 33.831261 -116.065544 110 29143ft 530kts
19-Jan-20 17:03 33.787481 -115.896216 110 29146ft 528kts
19-Jan-20 17:04 33.744100 -115.728062 110 29147ft 527kts
19-Jan-20 17:05 33.704714 -115.558279 106 29146ft 527kts
19-Jan-20 17:06 33.670596 -115.386164 105 29151ft 527kts
19-Jan-20 17:07 33.636858 -115.215253 106 29171ft 525kts
19-Jan-20 17:08 33.636279 -115.039080 89 29174ft 527kts
19-Jan-20 17:09 33.631281 -114.864187 106 29174ft 519kts
19-Jan-20 17:10 33.592520 -114.695908 108 29174ft 519kts
19-Jan-20 17:11 33.553085 -114.528242 108 29174ft 521kts
19-Jan-20 17:12 33.514927 -114.360560 107 29174ft 522kts
19-Jan-20 17:13 33.483648 -114.217346 108 28894ft 494kts
19-Jan-20 17:14 33.451606 -114.060418 105 27060ft 463kts
19-Jan-20 17:15 33.425370 -113.910598 105 24910ft 439kts
19-Jan-20 17:16 33.400743 -113.768747 105 22737ft 417kts
19-Jan-20 17:17 33.376577 -113.633795 105 20522ft 398kts
19-Jan-20 17:18 33.352250 -113.505743 105 18284ft 382kts
19-Jan-20 17:19 33.327355 -113.383213 104 16212ft 365kts
19-Jan-20 17:20 33.302204 -113.266626 105 14057ft 356kts
19-Jan-20 17:21 33.276634 -113.153113 104 11900ft 349kts
19-Jan-20 17:22 33.276755 -113.038457 88 9802ft 340kts
19-Jan-20 17:23 33.279605 -112.927786 88 9915ft 323kts
19-Jan-20 17:24 33.282890 -112.819510 88 10023ft 319kts
19-Jan-20 17:25 33.285853 -112.712291 88 10017ft 316kts
19-Jan-20 17:26 33.310257 -112.616947 68 9120ft 292kts
19-Jan-20 17:27 33.339670 -112.527687 67 8036ft 270kts
19-Jan-20 17:28 33.366977 -112.444331 67 7315ft 262kts
19-Jan-20 17:29 33.393285 -112.362903 67 6078ft 255kts
19-Jan-20 17:30 33.418427 -112.283366 68 4900ft 242kts
19-Jan-20 17:31 33.429990 -112.207769 81 3680ft 220kts
19-Jan-20 17:32 33.429715 -112.142511 91 2631ft 173kts
19-Jan-20 17:33 33.430557 -112.092613 88 2159ft 132kts
19-Jan-20 17:34 33.430998 -112.049624 88 1592ft 127kts
19-Jan-20 17:35 33.431062 -112.012519 88 1129ft 41kts
19-Jan-20 17:36 33.432563 -112.007520 33 1132ft 9kts
19-Jan-20 17:37 33.432866 -112.001616 90 1131ft 20kts
19-Jan-20 17:38 33.433571 -111.998590 319 1131ft 0kts
19-Jan-20 17:39 33.433695 -111.998716 321 1132ft 0kts
19-Jan-20 17:40 33.433695 -111.998716 321 1132ft 0kts

Navigation Log

Ident Type
Flight plan parsing failed, navigation log unavailable